sensor_id;sensor_type;location;lat;lon;timestamp;P1;durP1;ratioP1;P2;durP2;ratioP2
58992;SDS011;44782;0.000;0.000;2022-11-15T00:00:32;3.00;;;2.70;;
58992;SDS011;44782;0.000;0.000;2022-11-15T00:02:48;3.00;;;2.80;;
58992;SDS011;44782;0.000;0.000;2022-11-15T00:05:04;3.13;;;2.83;;
58992;SDS011;44782;0.000;0.000;2022-11-15T00:07:20;2.67;;;2.47;;
58992;SDS011;44782;0.000;0.000;2022-11-15T00:09:35;2.93;;;2.67;;
58992;SDS011;44782;0.000;0.000;2022-11-15T00:11:51;3.13;;;2.73;;
58992;SDS011;44782;0.000;0.000;2022-11-15T00:14:07;2.90;;;2.60;;
58992;SDS011;44782;0.000;0.000;2022-11-15T00:16:22;3.10;;;2.80;;
58992;SDS011;44782;0.000;0.000;2022-11-15T00:18:38;2.70;;;2.50;;
58992;SDS011;44782;0.000;0.000;2022-11-15T00:20:55;2.87;;;2.67;;
58992;SDS011;44782;0.000;0.000;2022-11-15T00:23:11;3.03;;;2.63;;
58992;SDS011;44782;0.000;0.000;2022-11-15T00:25:27;3.27;;;2.50;;
58992;SDS011;44782;0.000;0.000;2022-11-15T00:27:42;2.90;;;2.60;;
58992;SDS011;44782;0.000;0.000;2022-11-15T00:29:59;2.27;;;2.07;;
58992;SDS011;44782;0.000;0.000;2022-11-15T00:32:14;2.50;;;2.30;;
58992;SDS011;44782;0.000;0.000;2022-11-15T00:34:30;2.73;;;2.40;;
58992;SDS011;44782;0.000;0.000;2022-11-15T00:36:46;2.70;;;2.50;;
58992;SDS011;44782;0.000;0.000;2022-11-15T00:39:03;2.50;;;2.30;;
58992;SDS011;44782;0.000;0.000;2022-11-15T00:41:20;2.63;;;2.40;;
58992;SDS011;44782;0.000;0.000;2022-11-15T00:43:36;2.73;;;2.53;;
58992;SDS011;44782;0.000;0.000;2022-11-15T00:45:51;2.50;;;2.30;;
58992;SDS011;44782;0.000;0.000;2022-11-15T00:48:07;2.60;;;2.40;;
58992;SDS011;44782;0.000;0.000;2022-11-15T00:50:24;2.47;;;2.27;;
58992;SDS011;44782;0.000;0.000;2022-11-15T00:52:39;2.80;;;2.60;;
58992;SDS011;44782;0.000;0.000;2022-11-15T00:54:55;2.40;;;2.20;;
58992;SDS011;44782;0.000;0.000;2022-11-15T00:57:10;2.57;;;2.37;;
58992;SDS011;44782;0.000;0.000;2022-11-15T00:59:26;2.40;;;2.20;;
58992;SDS011;44782;0.000;0.000;2022-11-15T01:01:42;2.50;;;2.30;;
58992;SDS011;44782;0.000;0.000;2022-11-15T01:03:57;2.30;;;2.10;;
58992;SDS011;44782;0.000;0.000;2022-11-15T01:06:13;2.50;;;2.27;;
58992;SDS011;44782;0.000;0.000;2022-11-15T01:08:28;2.50;;;2.30;;
58992;SDS011;44782;0.000;0.000;2022-11-15T01:10:44;2.30;;;2.10;;
58992;SDS011;44782;0.000;0.000;2022-11-15T01:12:59;2.73;;;2.37;;
58992;SDS011;44782;0.000;0.000;2022-11-15T01:15:15;2.77;;;2.37;;
58992;SDS011;44782;0.000;0.000;2022-11-15T01:17:31;2.50;;;2.30;;
58992;SDS011;44782;0.000;0.000;2022-11-15T01:19:46;2.87;;;2.20;;
58992;SDS011;44782;0.000;0.000;2022-11-15T01:22:02;2.63;;;2.43;;
58992;SDS011;44782;0.000;0.000;2022-11-15T01:24:18;2.50;;;2.30;;
58992;SDS011;44782;0.000;0.000;2022-11-15T01:26:33;2.30;;;2.10;;
58992;SDS011;44782;0.000;0.000;2022-11-15T01:28:49;2.10;;;2.00;;
58992;SDS011;44782;0.000;0.000;2022-11-15T01:31:10;2.40;;;2.20;;
58992;SDS011;44782;0.000;0.000;2022-11-15T01:33:28;2.07;;;1.97;;
58992;SDS011;44782;0.000;0.000;2022-11-15T01:35:44;2.27;;;2.07;;
58992;SDS011;44782;0.000;0.000;2022-11-15T01:38:00;2.20;;;2.00;;
58992;SDS011;44782;0.000;0.000;2022-11-15T01:40:16;2.43;;;2.23;;
58992;SDS011;44782;0.000;0.000;2022-11-15T01:42:31;2.30;;;2.10;;
58992;SDS011;44782;0.000;0.000;2022-11-15T01:44:48;2.10;;;1.93;;
58992;SDS011;44782;0.000;0.000;2022-11-15T01:47:07;2.07;;;1.90;;
58992;SDS011;44782;0.000;0.000;2022-11-15T01:49:27;2.23;;;2.03;;
58992;SDS011;44782;0.000;0.000;2022-11-15T01:51:47;2.30;;;2.10;;
58992;SDS011;44782;0.000;0.000;2022-11-15T01:54:06;2.03;;;1.90;;
58992;SDS011;44782;0.000;0.000;2022-11-15T01:56:27;2.00;;;1.80;;
58992;SDS011;44782;0.000;0.000;2022-11-15T01:58:47;2.40;;;2.20;;
58992;SDS011;44782;0.000;0.000;2022-11-15T02:01:02;2.10;;;1.90;;
58992;SDS011;44782;0.000;0.000;2022-11-15T02:03:18;2.10;;;1.90;;
58992;SDS011;44782;0.000;0.000;2022-11-15T02:05:38;2.00;;;1.90;;
58992;SDS011;44782;0.000;0.000;2022-11-15T02:07:54;2.10;;;2.00;;
58992;SDS011;44782;0.000;0.000;2022-11-15T02:10:11;2.20;;;2.00;;
58992;SDS011;44782;0.000;0.000;2022-11-15T02:12:32;2.10;;;1.90;;
58992;SDS011;44782;0.000;0.000;2022-11-15T02:14:49;2.17;;;1.97;;
58992;SDS011;44782;0.000;0.000;2022-11-15T02:19:53;2.10;;;1.90;;
58992;SDS011;44782;0.000;0.000;2022-11-15T02:30:47;2.13;;;1.93;;
58992;SDS011;44782;0.000;0.000;2022-11-15T02:42:42;1.80;;;1.70;;
58992;SDS011;44782;0.000;0.000;2022-11-15T02:45:24;2.03;;;1.90;;
58992;SDS011;44782;0.000;0.000;2022-11-15T02:47:45;1.93;;;1.73;;
58992;SDS011;44782;0.000;0.000;2022-11-15T02:50:06;1.87;;;1.77;;
58992;SDS011;44782;0.000;0.000;2022-11-15T02:52:25;2.00;;;1.87;;
58992;SDS011;44782;0.000;0.000;2022-11-15T02:54:41;1.83;;;1.73;;
58992;SDS011;44782;0.000;0.000;2022-11-15T02:57:07;2.03;;;1.90;;
58992;SDS011;44782;0.000;0.000;2022-11-15T03:12:42;2.03;;;1.83;;
58992;SDS011;44782;0.000;0.000;2022-11-15T03:15:16;1.90;;;1.80;;
58992;SDS011;44782;0.000;0.000;2022-11-15T03:17:47;2.10;;;1.90;;
58992;SDS011;44782;0.000;0.000;2022-11-15T03:20:10;1.90;;;1.80;;
58992;SDS011;44782;0.000;0.000;2022-11-15T03:22:28;1.83;;;1.67;;
58992;SDS011;44782;0.000;0.000;2022-11-15T03:24:50;1.80;;;1.70;;
58992;SDS011;44782;0.000;0.000;2022-11-15T03:27:09;1.77;;;1.67;;
58992;SDS011;44782;0.000;0.000;2022-11-15T03:29:34;2.60;;;1.60;;
58992;SDS011;44782;0.000;0.000;2022-11-15T03:31:57;2.00;;;1.80;;
58992;SDS011;44782;0.000;0.000;2022-11-15T03:34:27;1.80;;;1.70;;
58992;SDS011;44782;0.000;0.000;2022-11-15T03:36:47;1.90;;;1.80;;
58992;SDS011;44782;0.000;0.000;2022-11-15T03:39:05;2.10;;;1.90;;
58992;SDS011;44782;0.000;0.000;2022-11-15T03:41:24;2.20;;;2.00;;
58992;SDS011;44782;0.000;0.000;2022-11-15T03:44:18;1.70;;;1.60;;
58992;SDS011;44782;0.000;0.000;2022-11-15T03:49:06;1.93;;;1.60;;
58992;SDS011;44782;0.000;0.000;2022-11-15T03:51:29;1.63;;;1.53;;
58992;SDS011;44782;0.000;0.000;2022-11-15T03:53:45;1.90;;;1.80;;
58992;SDS011;44782;0.000;0.000;2022-11-15T03:56:01;1.70;;;1.60;;
58992;SDS011;44782;0.000;0.000;2022-11-15T03:58:16;2.00;;;1.60;;
58992;SDS011;44782;0.000;0.000;2022-11-15T04:00:32;2.93;;;1.87;;
58992;SDS011;44782;0.000;0.000;2022-11-15T04:02:48;1.93;;;1.73;;
58992;SDS011;44782;0.000;0.000;2022-11-15T04:05:03;2.50;;;1.67;;
58992;SDS011;44782;0.000;0.000;2022-11-15T04:07:19;1.80;;;1.70;;
58992;SDS011;44782;0.000;0.000;2022-11-15T04:09:35;1.97;;;1.70;;
58992;SDS011;44782;0.000;0.000;2022-11-15T04:12:10;1.97;;;1.80;;
58992;SDS011;44782;0.000;0.000;2022-11-15T04:14:26;1.70;;;1.60;;
58992;SDS011;44782;0.000;0.000;2022-11-15T04:16:41;2.07;;;1.90;;
58992;SDS011;44782;0.000;0.000;2022-11-15T04:18:57;1.70;;;1.60;;
58992;SDS011;44782;0.000;0.000;2022-11-15T04:21:31;1.60;;;1.50;;
58992;SDS011;44782;0.000;0.000;2022-11-15T04:24:06;2.07;;;1.60;;
58992;SDS011;44782;0.000;0.000;2022-11-15T04:26:27;1.47;;;1.37;;
58992;SDS011;44782;0.000;0.000;2022-11-15T04:28:43;1.87;;;1.73;;
58992;SDS011;44782;0.000;0.000;2022-11-15T04:31:18;1.80;;;1.57;;
58992;SDS011;44782;0.000;0.000;2022-11-15T04:33:33;1.73;;;1.63;;
58992;SDS011;44782;0.000;0.000;2022-11-15T04:35:49;1.60;;;1.50;;
58992;SDS011;44782;0.000;0.000;2022-11-15T04:38:23;2.20;;;1.60;;
58992;SDS011;44782;0.000;0.000;2022-11-15T04:40:38;1.60;;;1.50;;
58992;SDS011;44782;0.000;0.000;2022-11-15T04:42:54;1.77;;;1.67;;
58992;SDS011;44782;0.000;0.000;2022-11-15T04:45:10;1.60;;;1.50;;
58992;SDS011;44782;0.000;0.000;2022-11-15T04:47:26;1.83;;;1.60;;
58992;SDS011;44782;0.000;0.000;2022-11-15T04:49:43;1.50;;;1.40;;
58992;SDS011;44782;0.000;0.000;2022-11-15T04:51:59;1.83;;;1.67;;
58992;SDS011;44782;0.000;0.000;2022-11-15T04:54:14;2.40;;;1.57;;
58992;SDS011;44782;0.000;0.000;2022-11-15T04:56:30;1.90;;;1.60;;
58992;SDS011;44782;0.000;0.000;2022-11-15T04:58:48;2.00;;;1.60;;
58992;SDS011;44782;0.000;0.000;2022-11-15T05:01:08;1.70;;;1.50;;
58992;SDS011;44782;0.000;0.000;2022-11-15T05:03:24;1.70;;;1.60;;
58992;SDS011;44782;0.000;0.000;2022-11-15T05:05:58;1.50;;;1.40;;
58992;SDS011;44782;0.000;0.000;2022-11-15T05:08:14;1.70;;;1.50;;
58992;SDS011;44782;0.000;0.000;2022-11-15T05:10:30;1.77;;;1.57;;
58992;SDS011;44782;0.000;0.000;2022-11-15T05:12:46;1.93;;;1.53;;
58992;SDS011;44782;0.000;0.000;2022-11-15T05:15:01;1.90;;;1.70;;
58992;SDS011;44782;0.000;0.000;2022-11-15T05:17:17;1.90;;;1.60;;
58992;SDS011;44782;0.000;0.000;2022-11-15T05:19:33;1.60;;;1.50;;
58992;SDS011;44782;0.000;0.000;2022-11-15T05:21:48;1.50;;;1.40;;
58992;SDS011;44782;0.000;0.000;2022-11-15T05:24:04;1.73;;;1.50;;
58992;SDS011;44782;0.000;0.000;2022-11-15T05:26:20;1.60;;;1.50;;
58992;SDS011;44782;0.000;0.000;2022-11-15T05:28:36;1.93;;;1.50;;
58992;SDS011;44782;0.000;0.000;2022-11-15T05:30:52;1.97;;;1.57;;
58992;SDS011;44782;0.000;0.000;2022-11-15T05:33:08;1.93;;;1.50;;
58992;SDS011;44782;0.000;0.000;2022-11-15T05:35:31;1.73;;;1.63;;
58992;SDS011;44782;0.000;0.000;2022-11-15T05:37:54;1.53;;;1.43;;
58992;SDS011;44782;0.000;0.000;2022-11-15T05:40:10;2.13;;;1.60;;
58992;SDS011;44782;0.000;0.000;2022-11-15T05:42:25;1.60;;;1.43;;
58992;SDS011;44782;0.000;0.000;2022-11-15T05:44:44;1.77;;;1.60;;
58992;SDS011;44782;0.000;0.000;2022-11-15T05:47:02;1.60;;;1.50;;
58992;SDS011;44782;0.000;0.000;2022-11-15T05:49:20;1.73;;;1.50;;
58992;SDS011;44782;0.000;0.000;2022-11-15T05:51:40;1.90;;;1.50;;
58992;SDS011;44782;0.000;0.000;2022-11-15T05:53:58;1.83;;;1.47;;
58992;SDS011;44782;0.000;0.000;2022-11-15T05:56:15;2.10;;;1.50;;
58992;SDS011;44782;0.000;0.000;2022-11-15T05:58:31;1.33;;;1.23;;
58992;SDS011;44782;0.000;0.000;2022-11-15T06:00:48;1.70;;;1.60;;
58992;SDS011;44782;0.000;0.000;2022-11-15T06:03:03;1.63;;;1.33;;
58992;SDS011;44782;0.000;0.000;2022-11-15T06:05:19;1.60;;;1.50;;
58992;SDS011;44782;0.000;0.000;2022-11-15T06:07:34;1.30;;;1.20;;
58992;SDS011;44782;0.000;0.000;2022-11-15T06:09:50;2.00;;;1.33;;
58992;SDS011;44782;0.000;0.000;2022-11-15T06:12:06;1.83;;;1.40;;
58992;SDS011;44782;0.000;0.000;2022-11-15T06:14:21;1.73;;;1.47;;
58992;SDS011;44782;0.000;0.000;2022-11-15T06:16:37;1.43;;;1.33;;
58992;SDS011;44782;0.000;0.000;2022-11-15T06:18:52;1.60;;;1.30;;
58992;SDS011;44782;0.000;0.000;2022-11-15T06:21:08;2.33;;;1.50;;
58992;SDS011;44782;0.000;0.000;2022-11-15T06:23:24;1.60;;;1.40;;
58992;SDS011;44782;0.000;0.000;2022-11-15T06:25:39;1.80;;;1.57;;
58992;SDS011;44782;0.000;0.000;2022-11-15T06:27:55;1.70;;;1.50;;
58992;SDS011;44782;0.000;0.000;2022-11-15T06:30:12;1.43;;;1.33;;
58992;SDS011;44782;0.000;0.000;2022-11-15T06:32:28;1.77;;;1.50;;
58992;SDS011;44782;0.000;0.000;2022-11-15T06:34:45;2.50;;;1.60;;
58992;SDS011;44782;0.000;0.000;2022-11-15T06:37:00;1.90;;;1.60;;
58992;SDS011;44782;0.000;0.000;2022-11-15T06:39:17;1.63;;;1.53;;
58992;SDS011;44782;0.000;0.000;2022-11-15T06:41:35;1.53;;;1.43;;
58992;SDS011;44782;0.000;0.000;2022-11-15T06:43:51;1.73;;;1.63;;
58992;SDS011;44782;0.000;0.000;2022-11-15T06:46:07;1.57;;;1.30;;
58992;SDS011;44782;0.000;0.000;2022-11-15T06:48:23;2.00;;;1.40;;
58992;SDS011;44782;0.000;0.000;2022-11-15T06:50:38;1.47;;;1.37;;
58992;SDS011;44782;0.000;0.000;2022-11-15T06:52:54;1.97;;;1.53;;
58992;SDS011;44782;0.000;0.000;2022-11-15T06:55:10;1.43;;;1.33;;
58992;SDS011;44782;0.000;0.000;2022-11-15T06:57:25;1.57;;;1.33;;
58992;SDS011;44782;0.000;0.000;2022-11-15T06:59:41;1.43;;;1.30;;
58992;SDS011;44782;0.000;0.000;2022-11-15T07:01:57;1.60;;;1.40;;
58992;SDS011;44782;0.000;0.000;2022-11-15T07:04:12;2.03;;;1.37;;
58992;SDS011;44782;0.000;0.000;2022-11-15T07:06:28;1.70;;;1.50;;
58992;SDS011;44782;0.000;0.000;2022-11-15T07:08:43;1.37;;;1.27;;
58992;SDS011;44782;0.000;0.000;2022-11-15T07:11:01;1.67;;;1.40;;
58992;SDS011;44782;0.000;0.000;2022-11-15T07:13:19;1.40;;;1.30;;
58992;SDS011;44782;0.000;0.000;2022-11-15T07:15:34;1.50;;;1.40;;
58992;SDS011;44782;0.000;0.000;2022-11-15T07:17:50;1.60;;;1.40;;
58992;SDS011;44782;0.000;0.000;2022-11-15T07:20:06;1.67;;;1.57;;
58992;SDS011;44782;0.000;0.000;2022-11-15T07:22:22;1.57;;;1.47;;
58992;SDS011;44782;0.000;0.000;2022-11-15T07:24:37;2.17;;;1.60;;
58992;SDS011;44782;0.000;0.000;2022-11-15T07:26:53;1.57;;;1.27;;
58992;SDS011;44782;0.000;0.000;2022-11-15T07:29:09;1.80;;;1.33;;
58992;SDS011;44782;0.000;0.000;2022-11-15T07:31:24;1.40;;;1.30;;
58992;SDS011;44782;0.000;0.000;2022-11-15T07:33:40;1.40;;;1.30;;
58992;SDS011;44782;0.000;0.000;2022-11-15T07:35:58;1.90;;;1.40;;
58992;SDS011;44782;0.000;0.000;2022-11-15T07:38:17;1.80;;;1.40;;
58992;SDS011;44782;0.000;0.000;2022-11-15T07:40:34;1.60;;;1.30;;
58992;SDS011;44782;0.000;0.000;2022-11-15T07:42:50;2.10;;;1.40;;
58992;SDS011;44782;0.000;0.000;2022-11-15T07:45:08;1.50;;;1.40;;
58992;SDS011;44782;0.000;0.000;2022-11-15T07:47:24;1.53;;;1.30;;
58992;SDS011;44782;0.000;0.000;2022-11-15T07:49:39;1.37;;;1.27;;
58992;SDS011;44782;0.000;0.000;2022-11-15T07:51:55;1.83;;;1.40;;
58992;SDS011;44782;0.000;0.000;2022-11-15T07:54:11;1.97;;;1.40;;
58992;SDS011;44782;0.000;0.000;2022-11-15T07:56:26;1.90;;;1.37;;
58992;SDS011;44782;0.000;0.000;2022-11-15T07:58:42;1.60;;;1.40;;
58992;SDS011;44782;0.000;0.000;2022-11-15T08:01:03;1.50;;;1.40;;
58992;SDS011;44782;0.000;0.000;2022-11-15T08:03:19;1.63;;;1.27;;
58992;SDS011;44782;0.000;0.000;2022-11-15T08:05:35;2.03;;;1.43;;
58992;SDS011;44782;0.000;0.000;2022-11-15T08:07:51;1.60;;;1.50;;
58992;SDS011;44782;0.000;0.000;2022-11-15T08:10:09;1.77;;;1.40;;
58992;SDS011;44782;0.000;0.000;2022-11-15T08:12:27;1.43;;;1.33;;
58992;SDS011;44782;0.000;0.000;2022-11-15T08:14:43;1.70;;;1.20;;
58992;SDS011;44782;0.000;0.000;2022-11-15T08:16:59;1.60;;;1.50;;
58992;SDS011;44782;0.000;0.000;2022-11-15T08:19:15;1.60;;;1.50;;
58992;SDS011;44782;0.000;0.000;2022-11-15T08:21:30;1.77;;;1.50;;
58992;SDS011;44782;0.000;0.000;2022-11-15T08:23:46;2.00;;;1.37;;
58992;SDS011;44782;0.000;0.000;2022-11-15T08:26:02;1.73;;;1.30;;
58992;SDS011;44782;0.000;0.000;2022-11-15T08:28:19;1.63;;;1.50;;
58992;SDS011;44782;0.000;0.000;2022-11-15T08:30:35;1.80;;;1.40;;
58992;SDS011;44782;0.000;0.000;2022-11-15T08:32:53;1.70;;;1.40;;
58992;SDS011;44782;0.000;0.000;2022-11-15T08:35:10;1.80;;;1.57;;
58992;SDS011;44782;0.000;0.000;2022-11-15T08:37:26;2.03;;;1.60;;
58992;SDS011;44782;0.000;0.000;2022-11-15T08:39:42;1.30;;;1.20;;
58992;SDS011;44782;0.000;0.000;2022-11-15T08:41:57;1.73;;;1.50;;
58992;SDS011;44782;0.000;0.000;2022-11-15T08:44:13;1.53;;;1.40;;
58992;SDS011;44782;0.000;0.000;2022-11-15T08:46:29;2.03;;;1.53;;
58992;SDS011;44782;0.000;0.000;2022-11-15T08:48:44;1.90;;;1.40;;
58992;SDS011;44782;0.000;0.000;2022-11-15T08:51:00;1.50;;;1.40;;
58992;SDS011;44782;0.000;0.000;2022-11-15T08:53:15;2.00;;;1.40;;
58992;SDS011;44782;0.000;0.000;2022-11-15T08:55:31;1.60;;;1.50;;
58992;SDS011;44782;0.000;0.000;2022-11-15T08:57:47;1.70;;;1.60;;
58992;SDS011;44782;0.000;0.000;2022-11-15T09:00:02;1.87;;;1.70;;
58992;SDS011;44782;0.000;0.000;2022-11-15T09:02:18;2.00;;;1.50;;
58992;SDS011;44782;0.000;0.000;2022-11-15T09:04:34;2.20;;;1.53;;
58992;SDS011;44782;0.000;0.000;2022-11-15T09:06:50;1.60;;;1.50;;
58992;SDS011;44782;0.000;0.000;2022-11-15T09:09:05;1.77;;;1.50;;
58992;SDS011;44782;0.000;0.000;2022-11-15T09:11:21;1.70;;;1.40;;
58992;SDS011;44782;0.000;0.000;2022-11-15T09:13:38;1.60;;;1.50;;
58992;SDS011;44782;0.000;0.000;2022-11-15T09:15:56;1.70;;;1.57;;
58992;SDS011;44782;0.000;0.000;2022-11-15T09:18:13;1.60;;;1.50;;
58992;SDS011;44782;0.000;0.000;2022-11-15T09:20:29;2.20;;;2.00;;
58992;SDS011;44782;0.000;0.000;2022-11-15T09:22:45;1.60;;;1.50;;
58992;SDS011;44782;0.000;0.000;2022-11-15T09:25:00;1.50;;;1.40;;
58992;SDS011;44782;0.000;0.000;2022-11-15T09:27:16;2.00;;;1.70;;
58992;SDS011;44782;0.000;0.000;2022-11-15T09:29:31;2.30;;;1.70;;
58992;SDS011;44782;0.000;0.000;2022-11-15T09:31:47;1.87;;;1.70;;
58992;SDS011;44782;0.000;0.000;2022-11-15T09:34:03;1.53;;;1.43;;
58992;SDS011;44782;0.000;0.000;2022-11-15T09:36:18;1.60;;;1.30;;
58992;SDS011;44782;0.000;0.000;2022-11-15T09:38:34;1.90;;;1.67;;
58992;SDS011;44782;0.000;0.000;2022-11-15T09:40:51;1.60;;;1.50;;
58992;SDS011;44782;0.000;0.000;2022-11-15T09:43:38;1.73;;;1.30;;
58992;SDS011;44782;0.000;0.000;2022-11-15T09:50:55;1.90;;;1.60;;
58992;SDS011;44782;0.000;0.000;2022-11-15T09:56:22;2.10;;;1.50;;
58992;SDS011;44782;0.000;0.000;2022-11-15T10:01:21;1.77;;;1.37;;
58992;SDS011;44782;0.000;0.000;2022-11-15T10:03:54;1.87;;;1.50;;
58992;SDS011;44782;0.000;0.000;2022-11-15T10:06:23;1.60;;;1.40;;
58992;SDS011;44782;0.000;0.000;2022-11-15T10:08:51;1.60;;;1.40;;
58992;SDS011;44782;0.000;0.000;2022-11-15T10:11:22;1.80;;;1.50;;
58992;SDS011;44782;0.000;0.000;2022-11-15T10:13:41;1.50;;;1.40;;
58992;SDS011;44782;0.000;0.000;2022-11-15T10:21:32;1.60;;;1.50;;
58992;SDS011;44782;0.000;0.000;2022-11-15T10:23:59;2.03;;;1.40;;
58992;SDS011;44782;0.000;0.000;2022-11-15T10:26:15;1.57;;;1.40;;
58992;SDS011;44782;0.000;0.000;2022-11-15T10:28:32;1.60;;;1.37;;
58992;SDS011;44782;0.000;0.000;2022-11-15T10:30:48;1.53;;;1.30;;
58992;SDS011;44782;0.000;0.000;2022-11-15T10:33:48;1.67;;;1.57;;
58992;SDS011;44782;0.000;0.000;2022-11-15T10:35:48;1.40;;;1.30;;
58992;SDS011;44782;0.000;0.000;2022-11-15T10:38:28;1.53;;;1.43;;
58992;SDS011;44782;0.000;0.000;2022-11-15T10:40:43;1.53;;;1.43;;
58992;SDS011;44782;0.000;0.000;2022-11-15T10:45:28;1.50;;;1.40;;
58992;SDS011;44782;0.000;0.000;2022-11-15T10:47:45;1.57;;;1.47;;
58992;SDS011;44782;0.000;0.000;2022-11-15T10:50:05;1.70;;;1.60;;
58992;SDS011;44782;0.000;0.000;2022-11-15T10:52:43;1.60;;;1.40;;
58992;SDS011;44782;0.000;0.000;2022-11-15T10:55:05;1.53;;;1.30;;
58992;SDS011;44782;0.000;0.000;2022-11-15T10:57:36;1.53;;;1.43;;
58992;SDS011;44782;0.000;0.000;2022-11-15T10:59:54;1.47;;;1.30;;
58992;SDS011;44782;0.000;0.000;2022-11-15T11:04:53;1.60;;;1.50;;
58992;SDS011;44782;0.000;0.000;2022-11-15T11:09:36;1.73;;;1.33;;
58992;SDS011;44782;0.000;0.000;2022-11-15T11:11:53;1.40;;;1.30;;
58992;SDS011;44782;0.000;0.000;2022-11-15T11:14:12;1.50;;;1.40;;
58992;SDS011;44782;0.000;0.000;2022-11-15T11:16:42;1.50;;;1.30;;
58992;SDS011;44782;0.000;0.000;2022-11-15T11:21:44;1.60;;;1.50;;
58992;SDS011;44782;0.000;0.000;2022-11-15T11:24:21;1.47;;;1.30;;
58992;SDS011;44782;0.000;0.000;2022-11-15T11:27:27;1.43;;;1.30;;
58992;SDS011;44782;0.000;0.000;2022-11-15T11:35:22;1.73;;;1.50;;
58992;SDS011;44782;0.000;0.000;2022-11-15T11:40:13;1.60;;;1.50;;
58992;SDS011;44782;0.000;0.000;2022-11-15T11:42:43;1.40;;;1.30;;
58992;SDS011;44782;0.000;0.000;2022-11-15T11:47:29;1.40;;;1.30;;
58992;SDS011;44782;0.000;0.000;2022-11-15T11:49:51;1.40;;;1.30;;
58992;SDS011;44782;0.000;0.000;2022-11-15T11:52:31;1.50;;;1.40;;
58992;SDS011;44782;0.000;0.000;2022-11-15T11:57:31;1.37;;;1.27;;
58992;SDS011;44782;0.000;0.000;2022-11-15T12:00:31;1.20;;;1.10;;
58992;SDS011;44782;0.000;0.000;2022-11-15T12:02:43;1.30;;;1.20;;
58992;SDS011;44782;0.000;0.000;2022-11-15T12:07:53;1.50;;;1.40;;
58992;SDS011;44782;0.000;0.000;2022-11-15T12:10:17;1.50;;;1.40;;
58992;SDS011;44782;0.000;0.000;2022-11-15T12:12:43;1.50;;;1.40;;
58992;SDS011;44782;0.000;0.000;2022-11-15T12:17:24;1.60;;;1.40;;
58992;SDS011;44782;0.000;0.000;2022-11-15T12:19:46;2.30;;;1.30;;
58992;SDS011;44782;0.000;0.000;2022-11-15T12:29:50;1.67;;;1.47;;
58992;SDS011;44782;0.000;0.000;2022-11-15T12:32:29;1.50;;;1.40;;
58992;SDS011;44782;0.000;0.000;2022-11-15T12:34:46;2.07;;;1.70;;
58992;SDS011;44782;0.000;0.000;2022-11-15T12:40:20;1.83;;;1.43;;
58992;SDS011;44782;0.000;0.000;2022-11-15T12:42:41;1.43;;;1.33;;
58992;SDS011;44782;0.000;0.000;2022-11-15T12:47:44;2.50;;;1.40;;
58992;SDS011;44782;0.000;0.000;2022-11-15T12:50:00;2.10;;;1.43;;
58992;SDS011;44782;0.000;0.000;2022-11-15T12:52:15;2.20;;;1.57;;
58992;SDS011;44782;0.000;0.000;2022-11-15T12:59:47;1.40;;;1.30;;
58992;SDS011;44782;0.000;0.000;2022-11-15T13:04:47;1.67;;;1.40;;
58992;SDS011;44782;0.000;0.000;2022-11-15T13:07:04;1.50;;;1.40;;
58992;SDS011;44782;0.000;0.000;2022-11-15T13:11:52;1.70;;;1.60;;
58992;SDS011;44782;0.000;0.000;2022-11-15T13:16:58;1.50;;;1.40;;
58992;SDS011;44782;0.000;0.000;2022-11-15T13:19:14;1.60;;;1.40;;
58992;SDS011;44782;0.000;0.000;2022-11-15T13:21:30;1.67;;;1.40;;
58992;SDS011;44782;0.000;0.000;2022-11-15T13:24:04;1.60;;;1.50;;
58992;SDS011;44782;0.000;0.000;2022-11-15T13:26:25;1.60;;;1.50;;
58992;SDS011;44782;0.000;0.000;2022-11-15T13:30:58;1.70;;;1.50;;
58992;SDS011;44782;0.000;0.000;2022-11-15T13:33:16;1.57;;;1.47;;
58992;SDS011;44782;0.000;0.000;2022-11-15T13:35:36;1.70;;;1.60;;
58992;SDS011;44782;0.000;0.000;2022-11-15T13:37:55;1.53;;;1.43;;
58992;SDS011;44782;0.000;0.000;2022-11-15T13:42:42;1.50;;;1.40;;
58992;SDS011;44782;0.000;0.000;2022-11-15T13:45:00;1.53;;;1.43;;
58992;SDS011;44782;0.000;0.000;2022-11-15T13:47:18;1.53;;;1.40;;
58992;SDS011;44782;0.000;0.000;2022-11-15T13:49:34;1.50;;;1.40;;
58992;SDS011;44782;0.000;0.000;2022-11-15T13:51:50;1.33;;;1.23;;
58992;SDS011;44782;0.000;0.000;2022-11-15T13:56:28;1.40;;;1.30;;
58992;SDS011;44782;0.000;0.000;2022-11-15T13:58:46;1.90;;;1.60;;
58992;SDS011;44782;0.000;0.000;2022-11-15T14:01:03;1.73;;;1.30;;
58992;SDS011;44782;0.000;0.000;2022-11-15T14:03:24;2.57;;;1.50;;
58992;SDS011;44782;0.000;0.000;2022-11-15T14:05:42;1.70;;;1.60;;
58992;SDS011;44782;0.000;0.000;2022-11-15T14:08:05;1.60;;;1.50;;
58992;SDS011;44782;0.000;0.000;2022-11-15T14:10:31;1.60;;;1.50;;
58992;SDS011;44782;0.000;0.000;2022-11-15T14:12:51;1.30;;;1.20;;
58992;SDS011;44782;0.000;0.000;2022-11-15T14:17:47;1.43;;;1.33;;
58992;SDS011;44782;0.000;0.000;2022-11-15T14:20:18;1.40;;;1.30;;
58992;SDS011;44782;0.000;0.000;2022-11-15T14:22:50;1.60;;;1.50;;
58992;SDS011;44782;0.000;0.000;2022-11-15T14:27:34;1.50;;;1.40;;
58992;SDS011;44782;0.000;0.000;2022-11-15T14:29:50;1.33;;;1.23;;
58992;SDS011;44782;0.000;0.000;2022-11-15T14:32:11;1.50;;;1.40;;
58992;SDS011;44782;0.000;0.000;2022-11-15T14:34:31;1.53;;;1.43;;
58992;SDS011;44782;0.000;0.000;2022-11-15T14:36:47;2.67;;;1.70;;
58992;SDS011;44782;0.000;0.000;2022-11-15T14:39:03;1.47;;;1.37;;
58992;SDS011;44782;0.000;0.000;2022-11-15T14:41:23;1.70;;;1.60;;
58992;SDS011;44782;0.000;0.000;2022-11-15T14:43:41;1.93;;;1.40;;
58992;SDS011;44782;0.000;0.000;2022-11-15T14:45:56;1.53;;;1.43;;
58992;SDS011;44782;0.000;0.000;2022-11-15T14:48:12;1.80;;;1.40;;
58992;SDS011;44782;0.000;0.000;2022-11-15T14:50:28;1.50;;;1.40;;
58992;SDS011;44782;0.000;0.000;2022-11-15T14:52:44;1.60;;;1.50;;
58992;SDS011;44782;0.000;0.000;2022-11-15T14:55:00;1.40;;;1.30;;
58992;SDS011;44782;0.000;0.000;2022-11-15T14:57:17;1.50;;;1.40;;
58992;SDS011;44782;0.000;0.000;2022-11-15T14:59:33;1.70;;;1.60;;
58992;SDS011;44782;0.000;0.000;2022-11-15T15:01:48;1.50;;;1.40;;
58992;SDS011;44782;0.000;0.000;2022-11-15T15:04:04;1.97;;;1.70;;
58992;SDS011;44782;0.000;0.000;2022-11-15T15:06:20;1.70;;;1.60;;
58992;SDS011;44782;0.000;0.000;2022-11-15T15:08:35;1.40;;;1.30;;
58992;SDS011;44782;0.000;0.000;2022-11-15T15:10:51;1.60;;;1.50;;
58992;SDS011;44782;0.000;0.000;2022-11-15T15:13:14;1.40;;;1.30;;
58992;SDS011;44782;0.000;0.000;2022-11-15T15:15:36;1.60;;;1.50;;
58992;SDS011;44782;0.000;0.000;2022-11-15T15:17:52;1.93;;;1.50;;
58992;SDS011;44782;0.000;0.000;2022-11-15T15:20:08;1.67;;;1.57;;
58992;SDS011;44782;0.000;0.000;2022-11-15T15:22:25;1.70;;;1.60;;
58992;SDS011;44782;0.000;0.000;2022-11-15T15:24:43;1.60;;;1.50;;
58992;SDS011;44782;0.000;0.000;2022-11-15T15:27:00;1.30;;;1.20;;
58992;SDS011;44782;0.000;0.000;2022-11-15T15:29:15;1.60;;;1.50;;
58992;SDS011;44782;0.000;0.000;2022-11-15T15:31:31;1.90;;;1.80;;
58992;SDS011;44782;0.000;0.000;2022-11-15T15:33:48;1.70;;;1.60;;
58992;SDS011;44782;0.000;0.000;2022-11-15T15:36:03;1.93;;;1.57;;
58992;SDS011;44782;0.000;0.000;2022-11-15T15:38:20;1.90;;;1.77;;
58992;SDS011;44782;0.000;0.000;2022-11-15T15:40:36;1.60;;;1.50;;
58992;SDS011;44782;0.000;0.000;2022-11-15T15:42:52;2.23;;;1.63;;
58992;SDS011;44782;0.000;0.000;2022-11-15T15:45:08;1.80;;;1.70;;
58992;SDS011;44782;0.000;0.000;2022-11-15T15:47:24;1.50;;;1.40;;
58992;SDS011;44782;0.000;0.000;2022-11-15T15:49:40;1.67;;;1.57;;
58992;SDS011;44782;0.000;0.000;2022-11-15T15:51:56;1.70;;;1.60;;
58992;SDS011;44782;0.000;0.000;2022-11-15T15:54:12;1.50;;;1.40;;
58992;SDS011;44782;0.000;0.000;2022-11-15T15:56:28;1.67;;;1.57;;
58992;SDS011;44782;0.000;0.000;2022-11-15T15:58:43;1.53;;;1.43;;
58992;SDS011;44782;0.000;0.000;2022-11-15T16:00:59;2.10;;;1.90;;
58992;SDS011;44782;0.000;0.000;2022-11-15T16:03:14;1.70;;;1.60;;
58992;SDS011;44782;0.000;0.000;2022-11-15T16:05:30;1.47;;;1.37;;
58992;SDS011;44782;0.000;0.000;2022-11-15T16:07:46;1.73;;;1.60;;